sensor_id;sensor_type;location;lat;lon;timestamp;P1;durP1;ratioP1;P2;durP2;ratioP2
10511;SDS011;5304;48.604;2.096;2023-03-31T00:02:24;12.47;;;3.53;;
10511;SDS011;5304;48.604;2.096;2023-03-31T00:05:08;17.20;;;3.57;;
10511;SDS011;5304;48.604;2.096;2023-03-31T00:07:54;12.90;;;3.30;;
10511;SDS011;5304;48.604;2.096;2023-03-31T00:10:44;13.33;;;3.77;;
10511;SDS011;5304;48.604;2.096;2023-03-31T00:13:29;10.30;;;3.13;;
10511;SDS011;5304;48.604;2.096;2023-03-31T00:16:14;10.47;;;3.23;;
10511;SDS011;5304;48.604;2.096;2023-03-31T00:18:59;14.57;;;4.10;;
10511;SDS011;5304;48.604;2.096;2023-03-31T00:21:44;15.90;;;3.20;;
10511;SDS011;5304;48.604;2.096;2023-03-31T00:24:33;14.63;;;3.00;;
10511;SDS011;5304;48.604;2.096;2023-03-31T00:27:18;9.27;;;2.70;;
10511;SDS011;5304;48.604;2.096;2023-03-31T00:30:03;9.27;;;2.50;;
10511;SDS011;5304;48.604;2.096;2023-03-31T00:32:48;10.43;;;3.37;;
10511;SDS011;5304;48.604;2.096;2023-03-31T00:35:34;9.90;;;2.83;;
10511;SDS011;5304;48.604;2.096;2023-03-31T00:38:21;10.30;;;3.40;;
10511;SDS011;5304;48.604;2.096;2023-03-31T00:41:06;11.17;;;2.93;;
10511;SDS011;5304;48.604;2.096;2023-03-31T00:44:12;13.37;;;3.17;;
10511;SDS011;5304;48.604;2.096;2023-03-31T00:47:05;12.87;;;3.23;;
10511;SDS011;5304;48.604;2.096;2023-03-31T00:49:58;8.13;;;3.13;;
10511;SDS011;5304;48.604;2.096;2023-03-31T00:52:43;8.37;;;2.87;;
10511;SDS011;5304;48.604;2.096;2023-03-31T00:55:32;11.37;;;2.80;;
10511;SDS011;5304;48.604;2.096;2023-03-31T00:58:20;8.60;;;2.60;;
10511;SDS011;5304;48.604;2.096;2023-03-31T01:01:12;8.60;;;2.80;;
10511;SDS011;5304;48.604;2.096;2023-03-31T01:04:02;13.27;;;3.20;;
10511;SDS011;5304;48.604;2.096;2023-03-31T01:06:56;9.53;;;2.70;;
10511;SDS011;5304;48.604;2.096;2023-03-31T01:09:45;8.53;;;2.87;;
10511;SDS011;5304;48.604;2.096;2023-03-31T01:12:31;11.77;;;3.00;;
10511;SDS011;5304;48.604;2.096;2023-03-31T01:15:19;8.67;;;2.80;;
10511;SDS011;5304;48.604;2.096;2023-03-31T01:18:04;12.73;;;3.53;;
10511;SDS011;5304;48.604;2.096;2023-03-31T01:42:08;8.87;;;2.83;;
10511;SDS011;5304;48.604;2.096;2023-03-31T01:45:06;12.20;;;3.07;;
10511;SDS011;5304;48.604;2.096;2023-03-31T01:48:15;7.20;;;2.87;;
10511;SDS011;5304;48.604;2.096;2023-03-31T01:51:09;10.90;;;3.30;;
10511;SDS011;5304;48.604;2.096;2023-03-31T01:54:05;6.97;;;2.90;;
10511;SDS011;5304;48.604;2.096;2023-03-31T01:56:56;6.50;;;2.83;;
10511;SDS011;5304;48.604;2.096;2023-03-31T02:03:02;7.70;;;3.03;;
10511;SDS011;5304;48.604;2.096;2023-03-31T02:05:56;12.37;;;3.57;;
10511;SDS011;5304;48.604;2.096;2023-03-31T02:08:47;10.10;;;2.50;;
10511;SDS011;5304;48.604;2.096;2023-03-31T02:11:36;10.00;;;3.13;;
10511;SDS011;5304;48.604;2.096;2023-03-31T02:14:25;12.70;;;2.87;;
10511;SDS011;5304;48.604;2.096;2023-03-31T02:17:15;7.10;;;2.20;;
10511;SDS011;5304;48.604;2.096;2023-03-31T02:20:03;9.30;;;2.70;;
10511;SDS011;5304;48.604;2.096;2023-03-31T02:22:57;10.97;;;3.40;;
10511;SDS011;5304;48.604;2.096;2023-03-31T02:25:47;12.50;;;3.73;;
10511;SDS011;5304;48.604;2.096;2023-03-31T02:28:37;10.77;;;3.80;;
10511;SDS011;5304;48.604;2.096;2023-03-31T02:34:29;8.90;;;2.77;;
10511;SDS011;5304;48.604;2.096;2023-03-31T02:37:13;8.27;;;2.73;;
10511;SDS011;5304;48.604;2.096;2023-03-31T02:39:59;12.80;;;3.23;;
10511;SDS011;5304;48.604;2.096;2023-03-31T02:42:49;11.17;;;3.60;;
10511;SDS011;5304;48.604;2.096;2023-03-31T02:48:27;11.50;;;3.77;;
10511;SDS011;5304;48.604;2.096;2023-03-31T03:07:33;11.07;;;3.40;;
10511;SDS011;5304;48.604;2.096;2023-03-31T03:15:53;10.53;;;3.23;;
10511;SDS011;5304;48.604;2.096;2023-03-31T03:19:00;10.37;;;3.23;;
10511;SDS011;5304;48.604;2.096;2023-03-31T03:21:47;15.73;;;3.87;;
10511;SDS011;5304;48.604;2.096;2023-03-31T03:24:31;13.30;;;3.40;;
10511;SDS011;5304;48.604;2.096;2023-03-31T03:27:17;12.70;;;3.90;;
10511;SDS011;5304;48.604;2.096;2023-03-31T03:30:03;11.00;;;3.70;;
10511;SDS011;5304;48.604;2.096;2023-03-31T03:32:49;16.37;;;4.30;;
10511;SDS011;5304;48.604;2.096;2023-03-31T03:35:34;16.67;;;4.83;;
10511;SDS011;5304;48.604;2.096;2023-03-31T03:38:18;9.67;;;4.00;;
10511;SDS011;5304;48.604;2.096;2023-03-31T03:41:03;16.10;;;4.27;;
10511;SDS011;5304;48.604;2.096;2023-03-31T03:43:50;14.87;;;4.13;;
10511;SDS011;5304;48.604;2.096;2023-03-31T03:46:34;17.60;;;4.77;;
10511;SDS011;5304;48.604;2.096;2023-03-31T03:49:18;15.17;;;3.77;;
10511;SDS011;5304;48.604;2.096;2023-03-31T03:52:03;12.03;;;3.97;;
10511;SDS011;5304;48.604;2.096;2023-03-31T03:54:47;14.17;;;4.40;;
10511;SDS011;5304;48.604;2.096;2023-03-31T03:57:32;17.47;;;4.30;;
10511;SDS011;5304;48.604;2.096;2023-03-31T04:00:16;11.70;;;3.70;;
10511;SDS011;5304;48.604;2.096;2023-03-31T04:03:01;11.67;;;3.70;;
10511;SDS011;5304;48.604;2.096;2023-03-31T04:05:46;17.20;;;4.60;;
10511;SDS011;5304;48.604;2.096;2023-03-31T04:08:32;15.93;;;4.17;;
10511;SDS011;5304;48.604;2.096;2023-03-31T04:11:17;16.07;;;3.90;;
10511;SDS011;5304;48.604;2.096;2023-03-31T04:14:02;14.37;;;4.47;;
10511;SDS011;5304;48.604;2.096;2023-03-31T04:16:46;21.60;;;5.30;;
10511;SDS011;5304;48.604;2.096;2023-03-31T04:19:31;18.97;;;4.13;;
10511;SDS011;5304;48.604;2.096;2023-03-31T04:22:15;22.87;;;4.93;;
10511;SDS011;5304;48.604;2.096;2023-03-31T04:25:03;21.43;;;4.23;;
10511;SDS011;5304;48.604;2.096;2023-03-31T04:27:53;18.13;;;4.57;;
10511;SDS011;5304;48.604;2.096;2023-03-31T04:30:37;21.37;;;4.73;;
10511;SDS011;5304;48.604;2.096;2023-03-31T04:33:22;12.90;;;4.20;;
10511;SDS011;5304;48.604;2.096;2023-03-31T04:36:06;15.93;;;4.57;;
10511;SDS011;5304;48.604;2.096;2023-03-31T04:39:00;20.63;;;4.60;;
10511;SDS011;5304;48.604;2.096;2023-03-31T04:41:45;22.10;;;4.33;;
10511;SDS011;5304;48.604;2.096;2023-03-31T04:44:29;15.50;;;4.53;;
10511;SDS011;5304;48.604;2.096;2023-03-31T04:47:14;26.37;;;5.97;;
10511;SDS011;5304;48.604;2.096;2023-03-31T04:49:58;28.23;;;5.90;;
10511;SDS011;5304;48.604;2.096;2023-03-31T04:52:43;20.10;;;5.40;;
10511;SDS011;5304;48.604;2.096;2023-03-31T04:55:28;16.83;;;4.63;;
10511;SDS011;5304;48.604;2.096;2023-03-31T04:58:12;18.73;;;4.37;;
10511;SDS011;5304;48.604;2.096;2023-03-31T05:00:57;22.93;;;5.10;;
10511;SDS011;5304;48.604;2.096;2023-03-31T05:03:41;18.80;;;5.80;;
10511;SDS011;5304;48.604;2.096;2023-03-31T05:06:26;17.90;;;4.47;;
10511;SDS011;5304;48.604;2.096;2023-03-31T05:09:10;20.73;;;5.00;;
10511;SDS011;5304;48.604;2.096;2023-03-31T05:11:55;20.77;;;4.37;;
10511;SDS011;5304;48.604;2.096;2023-03-31T05:14:40;23.73;;;5.50;;
10511;SDS011;5304;48.604;2.096;2023-03-31T05:17:24;18.73;;;4.17;;
10511;SDS011;5304;48.604;2.096;2023-03-31T05:20:09;25.67;;;6.10;;
10511;SDS011;5304;48.604;2.096;2023-03-31T05:22:54;18.67;;;4.57;;
10511;SDS011;5304;48.604;2.096;2023-03-31T05:25:39;24.20;;;4.60;;
10511;SDS011;5304;48.604;2.096;2023-03-31T05:28:25;20.23;;;4.90;;
10511;SDS011;5304;48.604;2.096;2023-03-31T05:31:09;21.90;;;5.20;;
10511;SDS011;5304;48.604;2.096;2023-03-31T05:33:55;22.23;;;4.47;;
10511;SDS011;5304;48.604;2.096;2023-03-31T05:36:39;20.10;;;5.23;;
10511;SDS011;5304;48.604;2.096;2023-03-31T05:39:26;13.67;;;4.87;;
10511;SDS011;5304;48.604;2.096;2023-03-31T05:42:15;22.07;;;5.83;;
10511;SDS011;5304;48.604;2.096;2023-03-31T05:45:01;22.27;;;5.57;;
10511;SDS011;5304;48.604;2.096;2023-03-31T05:47:45;23.90;;;6.23;;
10511;SDS011;5304;48.604;2.096;2023-03-31T05:50:29;21.47;;;4.87;;
10511;SDS011;5304;48.604;2.096;2023-03-31T05:53:14;25.50;;;5.07;;
10511;SDS011;5304;48.604;2.096;2023-03-31T05:55:59;21.87;;;5.17;;
10511;SDS011;5304;48.604;2.096;2023-03-31T05:58:45;19.03;;;5.40;;
10511;SDS011;5304;48.604;2.096;2023-03-31T06:01:29;22.10;;;5.10;;
10511;SDS011;5304;48.604;2.096;2023-03-31T06:04:13;21.63;;;5.07;;
10511;SDS011;5304;48.604;2.096;2023-03-31T06:06:58;27.53;;;6.07;;
10511;SDS011;5304;48.604;2.096;2023-03-31T06:09:42;24.30;;;6.20;;
10511;SDS011;5304;48.604;2.096;2023-03-31T06:12:28;24.37;;;5.03;;
10511;SDS011;5304;48.604;2.096;2023-03-31T06:15:14;22.93;;;5.70;;
10511;SDS011;5304;48.604;2.096;2023-03-31T06:17:59;31.70;;;6.43;;
10511;SDS011;5304;48.604;2.096;2023-03-31T06:20:43;24.00;;;5.67;;
10511;SDS011;5304;48.604;2.096;2023-03-31T06:23:27;30.63;;;6.33;;
10511;SDS011;5304;48.604;2.096;2023-03-31T06:26:13;20.53;;;4.97;;
10511;SDS011;5304;48.604;2.096;2023-03-31T06:28:59;30.53;;;6.23;;
10511;SDS011;5304;48.604;2.096;2023-03-31T06:31:44;17.47;;;5.37;;
10511;SDS011;5304;48.604;2.096;2023-03-31T06:34:29;24.87;;;4.97;;
10511;SDS011;5304;48.604;2.096;2023-03-31T06:37:13;21.80;;;4.97;;
10511;SDS011;5304;48.604;2.096;2023-03-31T06:39:58;25.63;;;5.57;;
10511;SDS011;5304;48.604;2.096;2023-03-31T06:42:43;21.17;;;4.73;;
10511;SDS011;5304;48.604;2.096;2023-03-31T06:45:28;19.67;;;4.63;;
10511;SDS011;5304;48.604;2.096;2023-03-31T06:48:13;21.83;;;5.17;;
10511;SDS011;5304;48.604;2.096;2023-03-31T06:50:58;18.47;;;4.70;;
10511;SDS011;5304;48.604;2.096;2023-03-31T06:53:44;17.53;;;4.10;;
10511;SDS011;5304;48.604;2.096;2023-03-31T06:56:28;18.00;;;4.40;;
10511;SDS011;5304;48.604;2.096;2023-03-31T06:59:13;17.80;;;4.40;;
10511;SDS011;5304;48.604;2.096;2023-03-31T07:01:57;20.10;;;4.80;;
10511;SDS011;5304;48.604;2.096;2023-03-31T07:04:42;17.70;;;5.07;;
10511;SDS011;5304;48.604;2.096;2023-03-31T07:07:26;12.43;;;3.87;;
10511;SDS011;5304;48.604;2.096;2023-03-31T07:10:15;12.20;;;3.57;;
10511;SDS011;5304;48.604;2.096;2023-03-31T07:12:59;14.93;;;4.00;;
10511;SDS011;5304;48.604;2.096;2023-03-31T07:15:47;17.60;;;4.40;;
10511;SDS011;5304;48.604;2.096;2023-03-31T07:18:32;16.80;;;4.60;;
10511;SDS011;5304;48.604;2.096;2023-03-31T07:21:17;14.13;;;4.30;;
10511;SDS011;5304;48.604;2.096;2023-03-31T07:24:02;19.33;;;3.80;;
10511;SDS011;5304;48.604;2.096;2023-03-31T07:26:46;17.67;;;4.10;;
10511;SDS011;5304;48.604;2.096;2023-03-31T07:29:30;18.67;;;4.80;;
10511;SDS011;5304;48.604;2.096;2023-03-31T07:32:15;16.70;;;4.27;;
10511;SDS011;5304;48.604;2.096;2023-03-31T07:34:59;14.00;;;3.77;;
10511;SDS011;5304;48.604;2.096;2023-03-31T07:37:45;19.37;;;4.20;;
10511;SDS011;5304;48.604;2.096;2023-03-31T07:40:31;21.47;;;4.70;;
10511;SDS011;5304;48.604;2.096;2023-03-31T07:43:15;13.03;;;3.93;;
10511;SDS011;5304;48.604;2.096;2023-03-31T07:46:00;16.33;;;3.90;;
10511;SDS011;5304;48.604;2.096;2023-03-31T07:48:44;16.67;;;5.17;;
10511;SDS011;5304;48.604;2.096;2023-03-31T07:51:30;18.10;;;4.50;;
10511;SDS011;5304;48.604;2.096;2023-03-31T07:54:14;23.30;;;5.03;;
10511;SDS011;5304;48.604;2.096;2023-03-31T07:56:59;16.33;;;4.53;;
10511;SDS011;5304;48.604;2.096;2023-03-31T07:59:47;25.93;;;5.90;;
10511;SDS011;5304;48.604;2.096;2023-03-31T08:02:31;23.27;;;5.30;;
10511;SDS011;5304;48.604;2.096;2023-03-31T08:05:17;20.73;;;5.43;;
10511;SDS011;5304;48.604;2.096;2023-03-31T08:08:02;25.03;;;5.00;;
10511;SDS011;5304;48.604;2.096;2023-03-31T08:10:46;20.17;;;5.03;;
10511;SDS011;5304;48.604;2.096;2023-03-31T08:13:31;21.83;;;5.13;;
10511;SDS011;5304;48.604;2.096;2023-03-31T08:16:16;21.60;;;4.53;;
10511;SDS011;5304;48.604;2.096;2023-03-31T08:19:00;23.73;;;5.17;;
10511;SDS011;5304;48.604;2.096;2023-03-31T08:21:45;24.23;;;5.23;;
10511;SDS011;5304;48.604;2.096;2023-03-31T08:24:29;20.03;;;4.63;;
10511;SDS011;5304;48.604;2.096;2023-03-31T08:27:14;18.37;;;4.17;;
10511;SDS011;5304;48.604;2.096;2023-03-31T08:29:59;19.80;;;4.67;;
10511;SDS011;5304;48.604;2.096;2023-03-31T08:32:46;15.20;;;4.27;;
10511;SDS011;5304;48.604;2.096;2023-03-31T08:35:31;14.27;;;4.63;;
10511;SDS011;5304;48.604;2.096;2023-03-31T08:38:16;22.30;;;4.83;;
10511;SDS011;5304;48.604;2.096;2023-03-31T08:41:00;18.27;;;5.10;;
10511;SDS011;5304;48.604;2.096;2023-03-31T08:43:45;20.40;;;5.03;;
10511;SDS011;5304;48.604;2.096;2023-03-31T08:46:31;16.97;;;4.80;;
10511;SDS011;5304;48.604;2.096;2023-03-31T08:49:18;17.77;;;5.17;;
10511;SDS011;5304;48.604;2.096;2023-03-31T08:52:04;18.80;;;4.50;;
10511;SDS011;5304;48.604;2.096;2023-03-31T08:55:00;24.13;;;4.50;;
10511;SDS011;5304;48.604;2.096;2023-03-31T08:57:58;11.90;;;3.97;;
10511;SDS011;5304;48.604;2.096;2023-03-31T09:00:57;17.00;;;4.07;;
10511;SDS011;5304;48.604;2.096;2023-03-31T09:06:53;22.10;;;4.03;;
10511;SDS011;5304;48.604;2.096;2023-03-31T09:18:42;16.80;;;4.17;;
10511;SDS011;5304;48.604;2.096;2023-03-31T09:24:20;13.27;;;3.50;;
10511;SDS011;5304;48.604;2.096;2023-03-31T09:27:11;16.17;;;4.40;;
10511;SDS011;5304;48.604;2.096;2023-03-31T09:29:59;20.83;;;4.73;;
10511;SDS011;5304;48.604;2.096;2023-03-31T09:32:47;19.23;;;4.30;;
10511;SDS011;5304;48.604;2.096;2023-03-31T09:35:35;14.13;;;3.53;;
10511;SDS011;5304;48.604;2.096;2023-03-31T09:38:20;17.00;;;3.60;;
10511;SDS011;5304;48.604;2.096;2023-03-31T09:41:05;12.23;;;3.43;;
10511;SDS011;5304;48.604;2.096;2023-03-31T09:43:50;21.90;;;3.87;;
10511;SDS011;5304;48.604;2.096;2023-03-31T09:46:34;12.77;;;3.70;;
10511;SDS011;5304;48.604;2.096;2023-03-31T09:49:22;14.90;;;3.50;;
10511;SDS011;5304;48.604;2.096;2023-03-31T09:52:15;13.57;;;3.47;;
10511;SDS011;5304;48.604;2.096;2023-03-31T09:55:17;12.90;;;3.40;;
10511;SDS011;5304;48.604;2.096;2023-03-31T09:58:25;7.87;;;2.70;;
10511;SDS011;5304;48.604;2.096;2023-03-31T10:01:10;9.00;;;3.17;;
10511;SDS011;5304;48.604;2.096;2023-03-31T10:03:58;14.63;;;4.00;;
10511;SDS011;5304;48.604;2.096;2023-03-31T10:06:45;12.33;;;3.13;;
10511;SDS011;5304;48.604;2.096;2023-03-31T10:09:30;10.53;;;3.40;;
10511;SDS011;5304;48.604;2.096;2023-03-31T10:12:20;11.73;;;2.57;;
10511;SDS011;5304;48.604;2.096;2023-03-31T10:15:21;9.90;;;2.97;;
10511;SDS011;5304;48.604;2.096;2023-03-31T10:18:13;8.80;;;2.40;;
10511;SDS011;5304;48.604;2.096;2023-03-31T10:21:02;14.13;;;2.67;;
10511;SDS011;5304;48.604;2.096;2023-03-31T10:23:48;11.43;;;2.43;;
10511;SDS011;5304;48.604;2.096;2023-03-31T10:26:34;10.33;;;2.80;;
10511;SDS011;5304;48.604;2.096;2023-03-31T10:29:23;10.20;;;2.73;;
10511;SDS011;5304;48.604;2.096;2023-03-31T10:32:19;11.10;;;3.20;;
10511;SDS011;5304;48.604;2.096;2023-03-31T10:35:07;12.20;;;2.87;;
10511;SDS011;5304;48.604;2.096;2023-03-31T10:38:01;11.33;;;3.33;;
10511;SDS011;5304;48.604;2.096;2023-03-31T10:40:55;10.77;;;2.60;;
10511;SDS011;5304;48.604;2.096;2023-03-31T10:43:42;13.97;;;2.70;;
10511;SDS011;5304;48.604;2.096;2023-03-31T10:46:51;14.03;;;3.87;;
10511;SDS011;5304;48.604;2.096;2023-03-31T10:49:36;10.87;;;3.30;;
10511;SDS011;5304;48.604;2.096;2023-03-31T10:52:23;7.40;;;3.20;;
10511;SDS011;5304;48.604;2.096;2023-03-31T10:55:30;9.40;;;3.10;;
10511;SDS011;5304;48.604;2.096;2023-03-31T10:58:26;8.67;;;2.80;;
10511;SDS011;5304;48.604;2.096;2023-03-31T11:13:25;10.43;;;3.23;;
10511;SDS011;5304;48.604;2.096;2023-03-31T11:22:33;15.30;;;3.63;;
10511;SDS011;5304;48.604;2.096;2023-03-31T11:44:08;15.53;;;3.60;;
10511;SDS011;5304;48.604;2.096;2023-03-31T11:46:56;7.93;;;2.50;;
10511;SDS011;5304;48.604;2.096;2023-03-31T11:50:32;7.90;;;2.53;;
10511;SDS011;5304;48.604;2.096;2023-03-31T11:55:47;9.80;;;2.80;;
10511;SDS011;5304;48.604;2.096;2023-03-31T11:58:36;10.73;;;2.40;;
10511;SDS011;5304;48.604;2.096;2023-03-31T12:04:27;12.10;;;3.27;;
10511;SDS011;5304;48.604;2.096;2023-03-31T12:10:33;11.87;;;3.23;;
10511;SDS011;5304;48.604;2.096;2023-03-31T12:21:52;12.30;;;2.97;;
10511;SDS011;5304;48.604;2.096;2023-03-31T12:24:44;10.53;;;2.80;;
10511;SDS011;5304;48.604;2.096;2023-03-31T12:27:32;12.17;;;2.73;;
10511;SDS011;5304;48.604;2.096;2023-03-31T12:36:11;15.10;;;3.27;;
10511;SDS011;5304;48.604;2.096;2023-03-31T12:43:18;10.80;;;2.83;;
10511;SDS011;5304;48.604;2.096;2023-03-31T13:04:08;7.40;;;2.80;;
10511;SDS011;5304;48.604;2.096;2023-03-31T13:12:59;6.83;;;2.37;;
10511;SDS011;5304;48.604;2.096;2023-03-31T13:15:53;8.90;;;2.20;;
10511;SDS011;5304;48.604;2.096;2023-03-31T13:18:39;10.60;;;2.70;;
10511;SDS011;5304;48.604;2.096;2023-03-31T13:21:26;9.87;;;2.60;;
10511;SDS011;5304;48.604;2.096;2023-03-31T13:24:11;11.37;;;3.10;;
10511;SDS011;5304;48.604;2.096;2023-03-31T13:26:57;9.53;;;2.57;;
10511;SDS011;5304;48.604;2.096;2023-03-31T13:30:00;7.90;;;2.77;;
10511;SDS011;5304;48.604;2.096;2023-03-31T13:32:51;13.10;;;3.50;;
10511;SDS011;5304;48.604;2.096;2023-03-31T13:36:09;11.97;;;2.33;;
10511;SDS011;5304;48.604;2.096;2023-03-31T13:52:41;10.23;;;2.57;;
10511;SDS011;5304;48.604;2.096;2023-03-31T13:55:33;6.57;;;2.20;;
10511;SDS011;5304;48.604;2.096;2023-03-31T13:58:37;6.67;;;2.10;;
10511;SDS011;5304;48.604;2.096;2023-03-31T14:01:50;6.37;;;1.80;;
10511;SDS011;5304;48.604;2.096;2023-03-31T14:07:33;6.50;;;1.73;;
10511;SDS011;5304;48.604;2.096;2023-03-31T14:13:23;3.63;;;1.90;;
10511;SDS011;5304;48.604;2.096;2023-03-31T14:16:08;10.20;;;2.27;;
10511;SDS011;5304;48.604;2.096;2023-03-31T14:18:55;6.60;;;2.33;;
10511;SDS011;5304;48.604;2.096;2023-03-31T14:22:06;8.80;;;2.20;;
10511;SDS011;5304;48.604;2.096;2023-03-31T14:25:25;8.57;;;2.13;;
10511;SDS011;5304;48.604;2.096;2023-03-31T14:28:43;8.60;;;2.53;;
10511;SDS011;5304;48.604;2.096;2023-03-31T14:32:11;6.53;;;1.73;;
10511;SDS011;5304;48.604;2.096;2023-03-31T14:38:08;7.47;;;2.13;;
10511;SDS011;5304;48.604;2.096;2023-03-31T14:40:59;4.70;;;1.67;;
10511;SDS011;5304;48.604;2.096;2023-03-31T14:43:48;7.73;;;1.90;;
10511;SDS011;5304;48.604;2.096;2023-03-31T14:46:36;5.13;;;1.77;;
10511;SDS011;5304;48.604;2.096;2023-03-31T14:49:26;4.30;;;1.50;;
10511;SDS011;5304;48.604;2.096;2023-03-31T14:52:31;6.80;;;1.67;;
10511;SDS011;5304;48.604;2.096;2023-03-31T14:55:21;5.10;;;1.73;;
10511;SDS011;5304;48.604;2.096;2023-03-31T14:58:07;4.93;;;1.80;;
10511;SDS011;5304;48.604;2.096;2023-03-31T15:00:57;7.00;;;2.37;;
10511;SDS011;5304;48.604;2.096;2023-03-31T15:03:42;7.37;;;2.47;;
10511;SDS011;5304;48.604;2.096;2023-03-31T15:06:27;4.57;;;1.73;;
10511;SDS011;5304;48.604;2.096;2023-03-31T15:09:20;3.60;;;1.50;;
10511;SDS011;5304;48.604;2.096;2023-03-31T15:12:11;5.47;;;1.23;;
10511;SDS011;5304;48.604;2.096;2023-03-31T15:15:01;4.90;;;1.47;;
10511;SDS011;5304;48.604;2.096;2023-03-31T15:17:50;6.97;;;2.03;;
10511;SDS011;5304;48.604;2.096;2023-03-31T15:20:36;5.83;;;1.63;;
10511;SDS011;5304;48.604;2.096;2023-03-31T15:23:26;3.10;;;1.40;;
10511;SDS011;5304;48.604;2.096;2023-03-31T15:26:11;3.33;;;1.77;;
10511;SDS011;5304;48.604;2.096;2023-03-31T15:29:03;3.27;;;1.60;;
10511;SDS011;5304;48.604;2.096;2023-03-31T15:32:42;3.87;;;1.60;;
10511;SDS011;5304;48.604;2.096;2023-03-31T15:35:30;6.23;;;1.70;;
10511;SDS011;5304;48.604;2.096;2023-03-31T15:38:16;2.33;;;1.57;;
10511;SDS011;5304;48.604;2.096;2023-03-31T15:41:01;5.27;;;1.90;;
10511;SDS011;5304;48.604;2.096;2023-03-31T15:43:54;9.90;;;2.20;;
10511;SDS011;5304;48.604;2.096;2023-03-31T15:47:12;6.13;;;2.00;;
10511;SDS011;5304;48.604;2.096;2023-03-31T15:52:51;5.70;;;1.73;;
10511;SDS011;5304;48.604;2.096;2023-03-31T15:55:40;2.27;;;1.60;;
10511;SDS011;5304;48.604;2.096;2023-03-31T16:01:43;1.80;;;1.10;;
10511;SDS011;5304;48.604;2.096;2023-03-31T16:04:31;2.47;;;1.40;;
10511;SDS011;5304;48.604;2.096;2023-03-31T16:10:08;2.37;;;1.50;;
10511;SDS011;5304;48.604;2.096;2023-03-31T16:13:02;2.67;;;1.23;;
10511;SDS011;5304;48.604;2.096;2023-03-31T16:15:50;2.90;;;1.13;;
10511;SDS011;5304;48.604;2.096;2023-03-31T16:18:41;3.57;;;1.17;;
10511;SDS011;5304;48.604;2.096;2023-03-31T16:21:34;2.77;;;1.17;;
10511;SDS011;5304;48.604;2.096;2023-03-31T16:24:33;1.20;;;1.10;;
10511;SDS011;5304;48.604;2.096;2023-03-31T16:27:18;3.73;;;1.40;;
10511;SDS011;5304;48.604;2.096;2023-03-31T16:30:06;3.07;;;1.30;;
10511;SDS011;5304;48.604;2.096;2023-03-31T16:33:03;2.30;;;1.40;;
10511;SDS011;5304;48.604;2.096;2023-03-31T16:35:50;2.03;;;1.20;;
10511;SDS011;5304;48.604;2.096;2023-03-31T16:38:38;4.17;;;1.47;;
10511;SDS011;5304;48.604;2.096;2023-03-31T16:41:22;5.50;;;1.40;;
10511;SDS011;5304;48.604;2.096;2023-03-31T16:44:07;3.00;;;1.53;;
10511;SDS011;5304;48.604;2.096;2023-03-31T16:46:51;2.43;;;1.73;;
10511;SDS011;5304;48.604;2.096;2023-03-31T16:49:35;3.07;;;1.40;;
10511;SDS011;5304;48.604;2.096;2023-03-31T16:52:20;3.23;;;1.40;;
10511;SDS011;5304;48.604;2.096;2023-03-31T16:55:04;2.60;;;1.33;;
10511;SDS011;5304;48.604;2.096;2023-03-31T16:57:51;5.23;;;1.57;;
10511;SDS011;5304;48.604;2.096;2023-03-31T17:00:36;3.97;;;1.90;;
10511;SDS011;5304;48.604;2.096;2023-03-31T17:03:22;3.53;;;1.23;;
10511;SDS011;5304;48.604;2.096;2023-03-31T17:06:08;1.83;;;1.50;;
10511;SDS011;5304;48.604;2.096;2023-03-31T17:08:55;3.10;;;1.43;;
10511;SDS011;5304;48.604;2.096;2023-03-31T17:11:39;3.03;;;1.93;;
10511;SDS011;5304;48.604;2.096;2023-03-31T17:14:23;3.03;;;1.77;;
10511;SDS011;5304;48.604;2.096;2023-03-31T17:17:08;2.90;;;1.53;;
10511;SDS011;5304;48.604;2.096;2023-03-31T17:19:52;3.73;;;1.67;;
10511;SDS011;5304;48.604;2.096;2023-03-31T17:22:36;4.30;;;1.90;;
10511;SDS011;5304;48.604;2.096;2023-03-31T17:25:21;5.53;;;2.10;;
10511;SDS011;5304;48.604;2.096;2023-03-31T17:28:05;5.10;;;2.00;;
10511;SDS011;5304;48.604;2.096;2023-03-31T17:30:50;4.27;;;1.90;;
10511;SDS011;5304;48.604;2.096;2023-03-31T17:33:35;7.40;;;2.13;;
10511;SDS011;5304;48.604;2.096;2023-03-31T17:36:19;5.40;;;1.80;;
10511;SDS011;5304;48.604;2.096;2023-03-31T17:39:05;4.13;;;1.60;;
10511;SDS011;5304;48.604;2.096;2023-03-31T17:41:50;5.13;;;1.97;;
10511;SDS011;5304;48.604;2.096;2023-03-31T17:44:34;7.63;;;2.37;;
10511;SDS011;5304;48.604;2.096;2023-03-31T17:47:19;6.00;;;2.00;;
10511;SDS011;5304;48.604;2.096;2023-03-31T17:50:04;4.90;;;1.97;;
10511;SDS011;5304;48.604;2.096;2023-03-31T17:52:48;4.60;;;2.73;;
10511;SDS011;5304;48.604;2.096;2023-03-31T17:55:36;6.83;;;2.13;;
10511;SDS011;5304;48.604;2.096;2023-03-31T17:58:20;6.63;;;3.53;;
10511;SDS011;5304;48.604;2.096;2023-03-31T18:01:06;6.27;;;2.50;;
10511;SDS011;5304;48.604;2.096;2023-03-31T18:03:53;8.30;;;2.50;;
10511;SDS011;5304;48.604;2.096;2023-03-31T18:06:41;6.20;;;2.17;;
10511;SDS011;5304;48.604;2.096;2023-03-31T18:09:27;3.93;;;1.80;;
10511;SDS011;5304;48.604;2.096;2023-03-31T18:12:12;5.10;;;2.47;;
10511;SDS011;5304;48.604;2.096;2023-03-31T18:14:57;6.00;;;2.13;;
10511;SDS011;5304;48.604;2.096;2023-03-31T18:17:41;7.17;;;1.87;;
10511;SDS011;5304;48.604;2.096;2023-03-31T18:20:27;5.87;;;2.10;;
10511;SDS011;5304;48.604;2.096;2023-03-31T18:23:11;10.13;;;2.83;;
10511;SDS011;5304;48.604;2.096;2023-03-31T18:25:56;8.30;;;2.70;;
10511;SDS011;5304;48.604;2.096;2023-03-31T18:28:40;8.37;;;2.60;;
10511;SDS011;5304;48.604;2.096;2023-03-31T18:31:24;7.57;;;4.00;;
10511;SDS011;5304;48.604;2.096;2023-03-31T18:34:09;6.33;;;2.33;;
10511;SDS011;5304;48.604;2.096;2023-03-31T18:36:56;6.23;;;3.57;;
10511;SDS011;5304;48.604;2.096;2023-03-31T18:39:40;5.23;;;2.43;;
10511;SDS011;5304;48.604;2.096;2023-03-31T18:42:25;3.97;;;2.27;;
10511;SDS011;5304;48.604;2.096;2023-03-31T18:45:09;4.93;;;1.83;;
10511;SDS011;5304;48.604;2.096;2023-03-31T18:47:55;4.60;;;2.37;;
10511;SDS011;5304;48.604;2.096;2023-03-31T18:50:40;7.60;;;2.13;;
10511;SDS011;5304;48.604;2.096;2023-03-31T18:53:25;4.40;;;1.87;;
10511;SDS011;5304;48.604;2.096;2023-03-31T18:56:10;4.87;;;1.53;;
10511;SDS011;5304;48.604;2.096;2023-03-31T18:58:55;4.20;;;2.20;;
10511;SDS011;5304;48.604;2.096;2023-03-31T19:01:40;7.30;;;2.70;;
10511;SDS011;5304;48.604;2.096;2023-03-31T19:04:24;8.10;;;2.20;;
10511;SDS011;5304;48.604;2.096;2023-03-31T19:07:09;7.80;;;2.00;;
10511;SDS011;5304;48.604;2.096;2023-03-31T19:09:54;7.50;;;2.00;;
10511;SDS011;5304;48.604;2.096;2023-03-31T19:12:38;5.30;;;1.67;;
10511;SDS011;5304;48.604;2.096;2023-03-31T19:15:22;6.77;;;1.87;;
10511;SDS011;5304;48.604;2.096;2023-03-31T19:18:12;4.30;;;2.10;;
10511;SDS011;5304;48.604;2.096;2023-03-31T19:20:58;6.50;;;1.53;;
10511;SDS011;5304;48.604;2.096;2023-03-31T19:23:43;7.50;;;2.03;;
10511;SDS011;5304;48.604;2.096;2023-03-31T19:26:27;4.10;;;1.67;;
10511;SDS011;5304;48.604;2.096;2023-03-31T19:29:11;9.90;;;2.70;;
10511;SDS011;5304;48.604;2.096;2023-03-31T19:31:56;4.27;;;2.10;;
10511;SDS011;5304;48.604;2.096;2023-03-31T19:34:41;4.20;;;2.50;;
10511;SDS011;5304;48.604;2.096;2023-03-31T19:37:26;7.00;;;2.13;;
10511;SDS011;5304;48.604;2.096;2023-03-31T19:40:11;5.83;;;2.30;;
10511;SDS011;5304;48.604;2.096;2023-03-31T19:42:56;6.13;;;1.90;;
10511;SDS011;5304;48.604;2.096;2023-03-31T19:45:40;5.43;;;2.20;;
10511;SDS011;5304;48.604;2.096;2023-03-31T19:48:25;5.33;;;2.13;;
10511;SDS011;5304;48.604;2.096;2023-03-31T19:51:12;3.97;;;1.90;;
10511;SDS011;5304;48.604;2.096;2023-03-31T19:53:57;2.53;;;1.60;;
10511;SDS011;5304;48.604;2.096;2023-03-31T19:56:41;5.80;;;2.00;;
10511;SDS011;5304;48.604;2.096;2023-03-31T19:59:26;4.40;;;1.67;;
10511;SDS011;5304;48.604;2.096;2023-03-31T20:02:11;4.87;;;1.60;;
10511;SDS011;5304;48.604;2.096;2023-03-31T20:04:56;3.37;;;1.83;;
10511;SDS011;5304;48.604;2.096;2023-03-31T20:07:41;3.90;;;1.43;;